createdAt,value
2018-03-18T00:01:13.918Z,-2.50
2018-03-18T00:03:45.074Z,-2.50
2018-03-18T00:06:12.647Z,-2.50
2018-03-18T00:08:40.931Z,-2.50
2018-03-18T00:11:08.265Z,-2.50
2018-03-18T00:14:03.491Z,-2.50
2018-03-18T00:16:30.919Z,-2.60
2018-03-18T00:19:00.263Z,-2.60
2018-03-18T00:21:29.569Z,-2.60
2018-03-18T00:24:01.596Z,-2.60
2018-03-18T00:26:34.886Z,-2.70
2018-03-18T00:29:05.959Z,-2.70
2018-03-18T00:31:36.749Z,-2.70
2018-03-18T00:34:08.996Z,-2.70
2018-03-18T00:36:42.933Z,-2.70
2018-03-18T00:39:17.676Z,-2.60
2018-03-18T00:41:50.284Z,-2.60
2018-03-18T00:44:25.919Z,-2.70
2018-03-18T00:46:53.247Z,-2.70
2018-03-18T00:49:23.963Z,-2.70
2018-03-18T00:52:00.415Z,-2.70
2018-03-18T00:54:29.846Z,-2.70
2018-03-18T00:56:59.013Z,-2.80
2018-03-18T00:59:34.315Z,-2.70
2018-03-18T01:02:01.537Z,-2.70
2018-03-18T01:04:37.830Z,-2.60
2018-03-18T01:07:12.009Z,-2.60
2018-03-18T01:09:40.434Z,-2.60
2018-03-18T01:12:09.696Z,-2.60
2018-03-18T01:14:37.043Z,-2.60
2018-03-18T01:17:06.515Z,-2.60
2018-03-18T01:19:36.400Z,-2.60
2018-03-18T01:22:03.810Z,-2.70
2018-03-18T01:24:32.063Z,-2.70
2018-03-18T01:26:59.391Z,-2.60
2018-03-18T01:29:31.320Z,-2.70
2018-03-18T01:32:01.455Z,-2.70
2018-03-18T01:34:38.779Z,-2.70
2018-03-18T01:37:08.011Z,-2.60
2018-03-18T01:39:37.915Z,-2.60
2018-03-18T01:42:12.320Z,-2.60
2018-03-18T01:44:41.468Z,-2.60
2018-03-18T01:47:09.473Z,-2.60
2018-03-18T01:49:46.455Z,-2.60
2018-03-18T01:52:25.023Z,-2.60
2018-03-18T01:54:55.215Z,-2.60
2018-03-18T01:57:30.983Z,-2.70
2018-03-18T01:59:58.940Z,-2.70
2018-03-18T02:02:27.071Z,-2.70
2018-03-18T02:04:55.478Z,-2.60
2018-03-18T02:07:46.276Z,-2.70
2018-03-18T02:10:22.114Z,-2.70
2018-03-18T02:12:49.580Z,-2.70
2018-03-18T02:15:26.099Z,-2.70
2018-03-18T02:17:53.183Z,-2.70
2018-03-18T02:20:28.624Z,-2.60
2018-03-18T02:23:04.159Z,-2.60
2018-03-18T02:25:39.840Z,-2.70
2018-03-18T02:28:07.443Z,-2.70
2018-03-18T02:30:40.023Z,-2.70
2018-03-18T02:33:17.640Z,-2.70
2018-03-18T02:35:46.107Z,-2.70
2018-03-18T02:38:25.919Z,-2.70
2018-03-18T02:40:59.242Z,-2.70
2018-03-18T02:43:31.680Z,-2.70
2018-03-18T02:46:06.215Z,-2.70
2018-03-18T02:48:38.427Z,-2.70
2018-03-18T02:51:31.731Z,-2.70
2018-03-18T02:54:09.536Z,-2.80
2018-03-18T02:57:05.041Z,-2.70
2018-03-18T02:59:36.605Z,-2.80
2018-03-18T03:02:07.892Z,-2.80
2018-03-18T03:04:45.967Z,-2.80
2018-03-18T03:07:19.307Z,-2.90
2018-03-18T03:10:00.978Z,-2.80
2018-03-18T03:12:44.691Z,-2.80
2018-03-18T03:15:24.274Z,-2.80
2018-03-18T03:17:51.634Z,-2.80
2018-03-18T03:20:26.198Z,-2.80
2018-03-18T03:23:05.286Z,-2.80
2018-03-18T03:25:40.199Z,-2.80
2018-03-18T03:28:07.863Z,-2.80
2018-03-18T03:30:38.086Z,-2.80
2018-03-18T03:33:05.696Z,-2.80
2018-03-18T03:35:39.267Z,-2.80
2018-03-18T03:38:25.654Z,-2.80
2018-03-18T03:41:03.246Z,-2.90
2018-03-18T03:43:34.276Z,-2.90
2018-03-18T03:46:09.379Z,-2.90
2018-03-18T03:48:45.053Z,-2.90
2018-03-18T03:51:20.151Z,-2.90
2018-03-18T03:53:49.488Z,-2.90
2018-03-18T03:56:37.186Z,-2.80
2018-03-18T03:59:40.808Z,-2.80
2018-03-18T04:02:08.282Z,-2.80
2018-03-18T04:04:40.870Z,-2.90
2018-03-18T04:07:13.038Z,-2.90
2018-03-18T04:09:46.527Z,-2.90
2018-03-18T04:12:16.720Z,-3.00
2018-03-18T04:15:07.224Z,-2.90
2018-03-18T04:17:37.911Z,-3.00
2018-03-18T04:20:12.384Z,-3.00
2018-03-18T04:22:39.823Z,-3.00
2018-03-18T04:25:17.567Z,-3.00
2018-03-18T04:27:44.995Z,-2.90
2018-03-18T04:30:22.851Z,-2.90
2018-03-18T04:32:55.394Z,-2.90
2018-03-18T04:35:27.880Z,-3.00
2018-03-18T04:38:00.443Z,-3.00
2018-03-18T04:40:30.294Z,-3.00
2018-03-18T04:43:04.902Z,-2.90
2018-03-18T04:45:40.515Z,-3.00
2018-03-18T04:48:07.791Z,-3.00
2018-03-18T04:51:02.947Z,-3.00
2018-03-18T04:53:31.232Z,-3.00
2018-03-18T04:56:00.466Z,-2.90
2018-03-18T04:58:35.019Z,-2.90
2018-03-18T05:01:04.227Z,-2.90
2018-03-18T05:03:33.538Z,-2.90
2018-03-18T05:06:04.639Z,-2.90
2018-03-18T05:08:41.495Z,-2.90
2018-03-18T05:11:14.239Z,-2.90
2018-03-18T05:13:42.509Z,-2.90
2018-03-18T05:16:09.921Z,-2.90
2018-03-18T05:18:43.559Z,-2.90
2018-03-18T05:21:11.931Z,-2.90
2018-03-18T05:23:49.236Z,-2.90
2018-03-18T05:26:17.022Z,-2.90
2018-03-18T05:28:51.482Z,-2.90
2018-03-18T05:31:21.647Z,-2.80
2018-03-18T05:33:55.539Z,-2.90
2018-03-18T05:36:27.947Z,-2.90
2018-03-18T05:38:57.654Z,-2.90
2018-03-18T05:41:33.130Z,-2.90
2018-03-18T05:44:03.708Z,-2.90
2018-03-18T05:46:35.070Z,-2.90
2018-03-18T05:49:02.295Z,-2.90
2018-03-18T05:51:34.613Z,-2.90
2018-03-18T05:54:02.168Z,-2.90
2018-03-18T05:56:29.187Z,-2.90
2018-03-18T05:58:56.614Z,-2.90
2018-03-18T06:01:25.998Z,-2.80
2018-03-18T06:03:59.443Z,-2.80
2018-03-18T06:06:33.023Z,-2.80
2018-03-18T06:09:02.747Z,-2.90
2018-03-18T06:11:31.022Z,-2.90
2018-03-18T06:13:59.995Z,-2.90
2018-03-18T06:16:36.075Z,-2.80
2018-03-18T06:19:09.659Z,-2.80
2018-03-18T06:21:37.170Z,-2.90
2018-03-18T06:24:11.656Z,-2.90
2018-03-18T06:26:43.588Z,-2.80
2018-03-18T06:29:17.823Z,-2.80
2018-03-18T06:31:56.287Z,-2.80
2018-03-18T06:34:32.826Z,-2.90
2018-03-18T06:37:02.015Z,-2.70
2018-03-18T06:39:30.232Z,-2.70
2018-03-18T06:42:05.502Z,-2.70
2018-03-18T06:44:37.912Z,-2.70
2018-03-18T06:47:06.120Z,-2.60
2018-03-18T06:49:34.275Z,-2.70
2018-03-18T06:52:26.379Z,-2.60
2018-03-18T06:55:03.888Z,-2.70
2018-03-18T06:57:39.643Z,-2.60
2018-03-18T07:00:09.431Z,-2.60
2018-03-18T07:02:42.896Z,-2.60
2018-03-18T07:05:36.327Z,-2.50
2018-03-18T07:08:09.144Z,-2.50
2018-03-18T07:10:36.640Z,-2.50
2018-03-18T07:13:05.028Z,-2.50
2018-03-18T07:15:35.911Z,-2.50
2018-03-18T07:18:16.563Z,-2.50
2018-03-18T07:21:08.231Z,-2.40
2018-03-18T07:23:37.640Z,-2.40
2018-03-18T07:26:07.037Z,-2.30
2018-03-18T07:28:37.230Z,-2.30
2018-03-18T07:31:05.243Z,-2.30
2018-03-18T07:33:35.614Z,-2.20
2018-03-18T07:36:18.934Z,-2.20
2018-03-18T07:38:51.615Z,-2.20
2018-03-18T07:41:19.512Z,-2.20
2018-03-18T07:43:52.855Z,-2.20
2018-03-18T07:46:29.516Z,-2.40
2018-03-18T07:49:04.136Z,-2.40
2018-03-18T07:51:36.646Z,-2.40
2018-03-18T07:54:13.931Z,-2.40
2018-03-18T07:56:46.383Z,-2.40
2018-03-18T07:59:30.337Z,-2.30
2018-03-18T08:02:00.736Z,-2.20
2018-03-18T08:04:29.900Z,-2.20
2018-03-18T08:07:01.339Z,-2.00
2018-03-18T08:09:31.476Z,-2.10
2018-03-18T08:12:03.940Z,-2.10
2018-03-18T08:14:36.279Z,-2.10
2018-03-18T08:17:11.481Z,-2.10
2018-03-18T08:19:43.911Z,-2.10
2018-03-18T08:22:11.686Z,-2.20
2018-03-18T08:24:44.180Z,-2.10
2018-03-18T08:27:22.635Z,-2.20
2018-03-18T08:29:53.008Z,-2.20
2018-03-18T08:32:45.164Z,-2.00
2018-03-18T08:35:23.918Z,-2.00
2018-03-18T08:37:56.447Z,-1.90
2018-03-18T08:40:27.870Z,-1.80
2018-03-18T08:42:58.193Z,-1.70
2018-03-18T08:45:27.930Z,-1.70
2018-03-18T08:47:55.328Z,-1.70
2018-03-18T08:50:28.675Z,-1.80
2018-03-18T08:52:58.941Z,-1.70
2018-03-18T08:55:34.471Z,-1.80
2018-03-18T08:58:07.046Z,-1.80
2018-03-18T09:00:34.691Z,-1.70
2018-03-18T09:03:05.924Z,-1.60
2018-03-18T09:05:38.481Z,-1.60
2018-03-18T09:08:10.953Z,-1.60
2018-03-18T09:10:44.799Z,-1.50
2018-03-18T09:13:24.795Z,-1.60
2018-03-18T09:16:01.752Z,-1.60
2018-03-18T09:18:35.056Z,-1.70
2018-03-18T09:21:07.024Z,-1.70
2018-03-18T09:23:39.043Z,-1.70
2018-03-18T09:26:06.454Z,-1.70
2018-03-18T09:28:44.059Z,-1.70
2018-03-18T09:31:11.515Z,-1.60
2018-03-18T09:33:44.074Z,-1.60
2018-03-18T09:36:22.047Z,-1.60
2018-03-18T09:38:52.619Z,-1.60
2018-03-18T09:41:19.991Z,-1.60
2018-03-18T09:43:48.176Z,-1.50
2018-03-18T09:46:17.145Z,-1.50
2018-03-18T09:49:04.236Z,-1.60
2018-03-18T09:51:31.364Z,-1.60
2018-03-18T09:54:03.612Z,-1.50
2018-03-18T09:56:31.939Z,-1.50
2018-03-18T09:59:11.488Z,-1.40
2018-03-18T10:01:47.904Z,-1.40
2018-03-18T10:04:18.256Z,-1.40
2018-03-18T10:06:50.644Z,-1.40
2018-03-18T10:09:20.558Z,-1.40
2018-03-18T10:11:53.107Z,-1.30
2018-03-18T10:14:19.851Z,-1.30
2018-03-18T10:16:47.272Z,-1.20
2018-03-18T10:19:17.562Z,-1.20
2018-03-18T10:21:54.400Z,-1.00
2018-03-18T10:24:38.611Z,-1.00
2018-03-18T10:27:15.444Z,-1.00
2018-03-18T10:29:55.183Z,-1.00
2018-03-18T10:32:29.964Z,-0.80
2018-03-18T10:35:01.410Z,-0.80
2018-03-18T10:37:34.452Z,-0.20
2018-03-18T10:40:10.039Z,-0.20
2018-03-18T10:42:39.247Z,-0.20
2018-03-18T10:45:10.256Z,-0.20
2018-03-18T10:47:42.002Z,-0.20
2018-03-18T10:50:10.308Z,-0.70
2018-03-18T10:52:41.037Z,-0.70
2018-03-18T10:55:10.261Z,-0.60
2018-03-18T10:57:45.150Z,-0.60
2018-03-18T11:00:18.687Z,-0.60
2018-03-18T11:02:53.246Z,-0.50
2018-03-18T11:05:23.062Z,-0.50
2018-03-18T11:07:56.496Z,-0.40
2018-03-18T11:10:27.231Z,0.00
2018-03-18T11:12:54.860Z,0.00
2018-03-18T11:15:26.212Z,0.00
2018-03-18T11:17:56.719Z,-0.10
2018-03-18T11:20:30.341Z,-0.10
2018-03-18T11:22:58.091Z,-0.20
2018-03-18T11:25:40.790Z,-0.20
2018-03-18T11:28:16.421Z,-0.20
2018-03-18T11:31:10.114Z,-0.10
2018-03-18T11:33:40.444Z,-0.20
2018-03-18T11:36:11.348Z,-0.10
2018-03-18T11:38:50.072Z,-0.10
2018-03-18T11:41:23.282Z,0.00
2018-03-18T11:43:58.223Z,0.00
2018-03-18T11:46:35.704Z,-0.10
2018-03-18T11:49:07.463Z,-0.20
2018-03-18T11:51:38.146Z,-0.20
2018-03-18T11:54:07.358Z,-0.40
2018-03-18T11:56:36.635Z,-0.40
2018-03-18T11:59:13.797Z,-0.40
2018-03-18T12:01:57.916Z,-0.50
2018-03-18T12:04:26.663Z,-0.60
2018-03-18T12:06:53.963Z,-0.60
2018-03-18T12:09:26.416Z,-0.60
2018-03-18T12:12:05.278Z,-0.40
2018-03-18T12:14:46.090Z,-0.50
2018-03-18T12:17:13.802Z,-0.10
2018-03-18T12:19:43.196Z,-0.10
2018-03-18T12:22:37.029Z,0.20
2018-03-18T12:25:04.483Z,0.10
2018-03-18T12:27:41.691Z,0.30
2018-03-18T12:30:13.812Z,0.40
2018-03-18T12:32:45.976Z,0.40
2018-03-18T12:35:29.132Z,0.20
2018-03-18T12:38:01.635Z,0.20
2018-03-18T12:40:50.535Z,0.20
2018-03-18T12:43:28.961Z,0.20
2018-03-18T12:46:06.731Z,0.20
2018-03-18T12:48:38.172Z,0.20
2018-03-18T12:51:05.476Z,0.10
2018-03-18T12:53:43.330Z,0.10
2018-03-18T12:56:11.523Z,0.00
2018-03-18T12:58:38.924Z,0.00
2018-03-18T13:01:05.558Z,0.00
2018-03-18T13:03:38.154Z,0.30
2018-03-18T13:06:08.448Z,0.30
2018-03-18T13:08:38.027Z,0.40
2018-03-18T13:11:06.399Z,0.40
2018-03-18T13:13:36.700Z,0.40
2018-03-18T13:16:08.011Z,0.40
2018-03-18T13:18:41.522Z,0.30
2018-03-18T13:21:09.208Z,0.30
2018-03-18T13:23:36.467Z,0.40
2018-03-18T13:26:07.876Z,0.40
2018-03-18T13:28:40.116Z,0.40
2018-03-18T13:31:13.930Z,0.40
2018-03-18T13:33:41.303Z,0.50
2018-03-18T13:36:08.886Z,0.50
2018-03-18T13:38:42.193Z,0.60
2018-03-18T13:41:16.739Z,0.60
2018-03-18T13:43:49.228Z,0.70
2018-03-18T13:46:36.067Z,0.60
2018-03-18T13:49:04.363Z,0.60
2018-03-18T13:51:41.455Z,0.50
2018-03-18T13:54:14.037Z,0.40
2018-03-18T13:56:46.451Z,0.40
2018-03-18T13:59:19.627Z,0.40
2018-03-18T14:01:47.058Z,0.40
2018-03-18T14:04:19.599Z,0.60
2018-03-18T14:06:46.914Z,0.60
2018-03-18T14:09:17.640Z,0.60
2018-03-18T14:11:49.666Z,0.60
2018-03-18T14:14:19.899Z,0.60
2018-03-18T14:16:47.000Z,0.60
2018-03-18T14:19:35.364Z,0.60
2018-03-18T14:22:07.996Z,0.60
2018-03-18T14:24:41.732Z,0.70
2018-03-18T14:27:12.883Z,0.70
2018-03-18T14:29:41.281Z,0.70
2018-03-18T14:32:08.736Z,0.60
2018-03-18T14:34:50.069Z,0.60
2018-03-18T14:37:23.181Z,0.60
2018-03-18T14:39:55.712Z,0.60
2018-03-18T14:42:27.780Z,0.70
2018-03-18T14:44:57.844Z,0.60
2018-03-18T14:47:31.727Z,0.70
2018-03-18T14:50:00.432Z,0.70
2018-03-18T14:52:29.814Z,0.80
2018-03-18T14:55:07.183Z,0.80
2018-03-18T14:57:40.748Z,0.70
2018-03-18T15:00:08.358Z,0.80
2018-03-18T15:02:35.696Z,0.80
2018-03-18T15:05:10.623Z,0.90
2018-03-18T15:07:39.613Z,0.70
2018-03-18T15:10:09.990Z,0.80
2018-03-18T15:12:38.041Z,0.80
2018-03-18T15:15:49.956Z,0.60
2018-03-18T15:18:27.788Z,0.70
2018-03-18T15:20:56.485Z,0.70
2018-03-18T15:23:28.740Z,0.90
2018-03-18T15:26:06.485Z,0.60
2018-03-18T15:28:42.775Z,0.60
2018-03-18T15:31:14.672Z,0.70
2018-03-18T15:33:42.264Z,0.60
2018-03-18T15:36:19.321Z,0.70
2018-03-18T15:38:52.264Z,0.70
2018-03-18T15:41:24.862Z,0.60
2018-03-18T15:43:57.231Z,0.60
2018-03-18T15:46:30.804Z,0.60
2018-03-18T15:48:58.216Z,0.70
2018-03-18T15:51:25.692Z,0.60
2018-03-18T15:53:57.123Z,0.60
2018-03-18T15:56:24.828Z,0.60
2018-03-18T15:58:51.384Z,0.60
2018-03-18T16:01:20.886Z,0.50
2018-03-18T16:03:48.860Z,0.50
2018-03-18T16:06:17.887Z,0.50
2018-03-18T16:08:49.575Z,0.50
2018-03-18T16:11:19.887Z,0.60
2018-03-18T16:13:47.125Z,0.60
2018-03-18T16:16:17.261Z,0.60
2018-03-18T16:18:50.536Z,0.50
2018-03-18T16:21:21.672Z,0.50
2018-03-18T16:23:52.387Z,0.60
2018-03-18T16:26:19.690Z,0.60
2018-03-18T16:29:08.859Z,0.60
2018-03-18T16:31:48.571Z,0.50
2018-03-18T16:34:21.496Z,0.40
2018-03-18T16:36:51.443Z,0.40
2018-03-18T16:39:21.375Z,0.40
2018-03-18T16:41:49.895Z,0.40
2018-03-18T16:44:18.431Z,0.40
2018-03-18T16:46:53.017Z,0.40
2018-03-18T16:49:20.958Z,0.30
2018-03-18T16:51:54.123Z,0.30
2018-03-18T16:54:26.022Z,0.30
2018-03-18T16:57:00.566Z,0.30
2018-03-18T16:59:37.350Z,0.30
2018-03-18T17:02:10.802Z,0.30
2018-03-18T17:04:44.052Z,0.30
2018-03-18T17:07:18.011Z,0.30
2018-03-18T17:09:45.619Z,0.30
2018-03-18T17:12:29.307Z,0.30
2018-03-18T17:14:59.596Z,0.30
2018-03-18T17:17:27.915Z,0.20
2018-03-18T17:20:26.267Z,0.20
2018-03-18T17:22:53.682Z,0.20
2018-03-18T17:25:26.627Z,0.10
2018-03-18T17:28:01.083Z,0.10
2018-03-18T17:30:29.564Z,0.10
2018-03-18T17:33:08.242Z,0.10
2018-03-18T17:35:37.780Z,0.10
2018-03-18T17:38:10.352Z,0.10
2018-03-18T17:40:37.936Z,0.10
2018-03-18T17:43:08.608Z,0.10
2018-03-18T17:45:54.220Z,0.10
2018-03-18T17:48:38.715Z,0.10
2018-03-18T17:51:18.688Z,0.10
2018-03-18T17:54:01.498Z,0.10
2018-03-18T17:56:36.819Z,0.10
2018-03-18T17:59:06.199Z,0.10
2018-03-18T18:01:32.784Z,0.00
2018-03-18T18:04:01.329Z,0.00
2018-03-18T18:06:47.607Z,0.00
2018-03-18T18:09:16.555Z,0.00
2018-03-18T18:11:44.210Z,0.00
2018-03-18T18:14:12.789Z,0.10
2018-03-18T18:16:45.980Z,0.00
2018-03-18T18:19:13.430Z,0.00
2018-03-18T18:21:41.160Z,0.00
2018-03-18T18:24:11.160Z,0.00
2018-03-18T18:26:51.711Z,0.10
2018-03-18T18:29:21.496Z,0.00
2018-03-18T18:31:50.861Z,0.00
2018-03-18T18:34:18.206Z,0.00
2018-03-18T18:36:44.845Z,-0.10
2018-03-18T18:39:13.115Z,0.00
2018-03-18T18:41:40.628Z,0.00
2018-03-18T18:44:10.350Z,0.00
2018-03-18T18:46:42.757Z,0.00
2018-03-18T18:49:15.571Z,-0.10
2018-03-18T18:51:59.925Z,-0.10
2018-03-18T18:54:32.696Z,-0.10
2018-03-18T18:57:01.259Z,0.00
2018-03-18T18:59:38.747Z,-0.10
2018-03-18T19:02:07.342Z,-0.20
2018-03-18T19:04:41.892Z,-0.10
2018-03-18T19:07:23.661Z,-0.20
2018-03-18T19:09:56.351Z,-0.20
2018-03-18T19:12:42.920Z,-0.20
2018-03-18T19:15:12.094Z,-0.10
2018-03-18T19:17:39.312Z,-0.10
2018-03-18T19:20:06.058Z,-0.10
2018-03-18T19:22:54.294Z,-0.10
2018-03-18T19:25:20.909Z,-0.10
2018-03-18T19:27:49.595Z,-0.20
2018-03-18T19:30:18.240Z,-0.20
2018-03-18T19:32:52.891Z,-0.20
2018-03-18T19:35:21.508Z,-0.20
2018-03-18T19:37:48.849Z,-0.20
2018-03-18T19:40:21.499Z,-0.20
2018-03-18T19:42:55.793Z,-0.30
2018-03-18T19:45:24.292Z,-0.30
2018-03-18T19:47:50.990Z,-0.30
2018-03-18T19:50:21.417Z,-0.40
2018-03-18T19:52:57.269Z,-0.40
2018-03-18T19:55:25.636Z,-0.30
2018-03-18T19:58:05.382Z,-0.40
2018-03-18T20:00:39.182Z,-0.30
2018-03-18T20:03:19.194Z,-0.30
2018-03-18T20:05:51.790Z,-0.30
2018-03-18T20:08:19.352Z,-0.40
2018-03-18T20:10:46.693Z,-0.40
2018-03-18T20:13:14.081Z,-0.40
2018-03-18T20:15:41.399Z,-0.40
2018-03-18T20:18:08.077Z,-0.40
2018-03-18T20:20:35.496Z,-0.40
2018-03-18T20:23:02.797Z,-0.40
2018-03-18T20:25:33.474Z,-0.40
2018-03-18T20:28:01.024Z,-0.40
2018-03-18T20:30:27.689Z,-0.50
2018-03-18T20:33:16.051Z,-0.50
2018-03-18T20:35:51.742Z,-0.50
2018-03-18T20:38:21.112Z,-0.50
2018-03-18T20:40:48.443Z,-0.50
2018-03-18T20:43:17.051Z,-0.50
2018-03-18T20:45:45.615Z,-0.50
2018-03-18T20:48:13.323Z,-0.50
2018-03-18T20:50:46.047Z,-0.50
2018-03-18T20:53:13.801Z,-0.50
2018-03-18T20:55:46.725Z,-0.50
2018-03-18T20:58:21.524Z,-0.50
2018-03-18T21:00:51.994Z,-0.60
2018-03-18T21:03:24.444Z,-0.60
2018-03-18T21:05:54.772Z,-0.60
2018-03-18T21:08:22.400Z,-0.60
2018-03-18T21:10:52.710Z,-0.50
2018-03-18T21:13:23.611Z,-0.60
2018-03-18T21:16:18.207Z,-0.60
2018-03-18T21:18:47.216Z,-0.60
2018-03-18T21:21:19.825Z,-0.60
2018-03-18T21:23:47.067Z,-0.60
2018-03-18T21:26:17.148Z,-0.60
2018-03-18T21:28:53.451Z,-0.60
2018-03-18T21:31:26.547Z,-0.70
2018-03-18T21:33:59.039Z,-0.70
2018-03-18T21:36:26.396Z,-0.70
2018-03-18T21:38:59.887Z,-0.70
2018-03-18T21:41:39.127Z,-0.70
2018-03-18T21:44:11.764Z,-0.60
2018-03-18T21:46:38.469Z,-0.60
2018-03-18T21:49:06.755Z,-0.60
2018-03-18T21:51:34.699Z,-0.70
2018-03-18T21:54:07.650Z,-0.70
2018-03-18T21:56:43.272Z,-0.70
2018-03-18T21:59:14.647Z,-0.70
2018-03-18T22:01:46.277Z,-0.70
2018-03-18T22:04:13.616Z,-0.80
2018-03-18T22:06:44.639Z,-0.70
2018-03-18T22:09:12.042Z,-0.70
2018-03-18T22:11:41.315Z,-0.80
2018-03-18T22:14:15.692Z,-0.80
2018-03-18T22:16:42.299Z,-0.80
2018-03-18T22:19:16.362Z,-0.70
2018-03-18T22:21:43.924Z,-0.70
2018-03-18T22:24:10.639Z,-0.80
2018-03-18T22:26:38.942Z,-0.80
2018-03-18T22:29:07.546Z,-0.80
2018-03-18T22:31:37.039Z,-0.80
2018-03-18T22:34:05.375Z,-0.80
2018-03-18T22:36:32.774Z,-0.80
2018-03-18T22:38:59.859Z,-0.80
2018-03-18T22:41:27.175Z,-0.80
2018-03-18T22:43:58.467Z,-0.80
2018-03-18T22:46:25.067Z,-0.80
2018-03-18T22:48:53.357Z,-0.80
2018-03-18T22:51:25.851Z,-0.80
2018-03-18T22:53:56.354Z,-0.80
2018-03-18T22:56:33.291Z,-1.00
2018-03-18T22:59:00.538Z,-1.00
2018-03-18T23:01:33.768Z,-1.00
2018-03-18T23:04:01.212Z,-1.00
2018-03-18T23:06:28.289Z,-1.00
2018-03-18T23:08:55.541Z,-1.00
2018-03-18T23:11:32.324Z,-1.00
2018-03-18T23:14:04.943Z,-1.10
2018-03-18T23:16:32.439Z,-1.20
2018-03-18T23:19:04.152Z,-1.10
2018-03-18T23:21:31.647Z,-1.10
2018-03-18T23:24:01.870Z,-1.10
2018-03-18T23:26:28.484Z,-1.10
2018-03-18T23:28:55.367Z,-1.20
2018-03-18T23:31:23.618Z,-1.20
2018-03-18T23:33:58.735Z,-1.20
2018-03-18T23:36:29.843Z,-1.20
2018-03-18T23:39:12.099Z,-1.20
2018-03-18T23:41:46.310Z,-1.20
2018-03-18T23:44:13.892Z,-1.20
2018-03-18T23:46:41.503Z,-1.20
2018-03-18T23:49:12.884Z,-1.20
2018-03-18T23:51:39.667Z,-1.00
2018-03-18T23:54:09.591Z,-1.20
2018-03-18T23:56:39.726Z,-1.20
2018-03-18T23:59:08.835Z,-1.10
